sensor_id;sensor_type;location;lat;lon;timestamp;P1;P2;P0
69224;PMS1003;56333;51.306;17.056;2023-11-21T00:01:10;2.40;1.40;
69224;PMS1003;56333;51.306;17.056;2023-11-21T00:02:39;2.80;1.70;
69224;PMS1003;56333;51.306;17.056;2023-11-21T00:04:08;3.90;1.90;
69224;PMS1003;56333;51.306;17.056;2023-11-21T00:05:36;2.40;1.70;
69224;PMS1003;56333;51.306;17.056;2023-11-21T00:07:07;2.90;1.70;
69224;PMS1003;56333;51.306;17.056;2023-11-21T00:08:36;1.90;1.40;
69224;PMS1003;56333;51.306;17.056;2023-11-21T00:10:05;3.90;2.30;
69224;PMS1003;56333;51.306;17.056;2023-11-21T00:11:35;3.80;2.60;
69224;PMS1003;56333;51.306;17.056;2023-11-21T00:13:03;3.80;2.10;
69224;PMS1003;56333;51.306;17.056;2023-11-21T00:14:31;2.80;1.60;
69224;PMS1003;56333;51.306;17.056;2023-11-21T00:16:00;3.20;1.80;
69224;PMS1003;56333;51.306;17.056;2023-11-21T00:17:29;2.10;1.30;
69224;PMS1003;56333;51.306;17.056;2023-11-21T00:18:58;2.80;1.80;
69224;PMS1003;56333;51.306;17.056;2023-11-21T00:20:26;2.00;1.30;
69224;PMS1003;56333;51.306;17.056;2023-11-21T00:21:55;2.10;1.40;
69224;PMS1003;56333;51.306;17.056;2023-11-21T00:23:23;2.00;1.20;
69224;PMS1003;56333;51.306;17.056;2023-11-21T00:24:52;2.00;1.30;
69224;PMS1003;56333;51.306;17.056;2023-11-21T00:26:20;1.80;1.20;
69224;PMS1003;56333;51.306;17.056;2023-11-21T00:27:52;1.90;1.10;
69224;PMS1003;56333;51.306;17.056;2023-11-21T00:29:20;2.00;1.30;
69224;PMS1003;56333;51.306;17.056;2023-11-21T00:30:49;2.10;1.30;
69224;PMS1003;56333;51.306;17.056;2023-11-21T00:32:18;2.40;1.50;
69224;PMS1003;56333;51.306;17.056;2023-11-21T00:33:46;2.70;1.90;
69224;PMS1003;56333;51.306;17.056;2023-11-21T00:35:16;3.20;1.50;
69224;PMS1003;56333;51.306;17.056;2023-11-21T00:36:44;2.90;1.20;
69224;PMS1003;56333;51.306;17.056;2023-11-21T00:38:14;2.00;1.20;
69224;PMS1003;56333;51.306;17.056;2023-11-21T00:39:45;1.70;1.20;
69224;PMS1003;56333;51.306;17.056;2023-11-21T00:41:14;2.80;1.40;
69224;PMS1003;56333;51.306;17.056;2023-11-21T00:42:42;2.40;1.40;
69224;PMS1003;56333;51.306;17.056;2023-11-21T00:44:11;1.90;1.20;
69224;PMS1003;56333;51.306;17.056;2023-11-21T00:45:41;1.70;1.30;
69224;PMS1003;56333;51.306;17.056;2023-11-21T00:47:09;1.70;1.30;
69224;PMS1003;56333;51.306;17.056;2023-11-21T00:48:39;2.30;1.70;
69224;PMS1003;56333;51.306;17.056;2023-11-21T00:50:10;2.10;1.40;
69224;PMS1003;56333;51.306;17.056;2023-11-21T00:51:38;2.90;1.50;
69224;PMS1003;56333;51.306;17.056;2023-11-21T00:53:06;2.50;1.30;
69224;PMS1003;56333;51.306;17.056;2023-11-21T00:54:35;2.30;1.50;
69224;PMS1003;56333;51.306;17.056;2023-11-21T00:56:06;2.10;1.40;
69224;PMS1003;56333;51.306;17.056;2023-11-21T00:57:36;3.40;1.60;
69224;PMS1003;56333;51.306;17.056;2023-11-21T00:59:04;3.50;1.80;
69224;PMS1003;56333;51.306;17.056;2023-11-21T01:00:33;2.60;1.30;
69224;PMS1003;56333;51.306;17.056;2023-11-21T01:02:05;2.20;1.60;
69224;PMS1003;56333;51.306;17.056;2023-11-21T01:03:36;16.00;9.00;
69224;PMS1003;56333;51.306;17.056;2023-11-21T01:05:05;5.50;3.30;
69224;PMS1003;56333;51.306;17.056;2023-11-21T01:06:34;3.60;2.40;
69224;PMS1003;56333;51.306;17.056;2023-11-21T01:08:02;2.40;1.50;
69224;PMS1003;56333;51.306;17.056;2023-11-21T01:09:31;2.60;1.60;
69224;PMS1003;56333;51.306;17.056;2023-11-21T01:11:00;2.70;1.60;
69224;PMS1003;56333;51.306;17.056;2023-11-21T01:12:29;2.80;1.60;
69224;PMS1003;56333;51.306;17.056;2023-11-21T01:13:57;2.40;1.50;
69224;PMS1003;56333;51.306;17.056;2023-11-21T01:15:26;2.40;1.60;
69224;PMS1003;56333;51.306;17.056;2023-11-21T01:16:54;2.10;1.40;
69224;PMS1003;56333;51.306;17.056;2023-11-21T01:18:24;2.50;1.70;
69224;PMS1003;56333;51.306;17.056;2023-11-21T01:19:53;2.10;1.50;
69224;PMS1003;56333;51.306;17.056;2023-11-21T01:21:21;1.70;1.20;
69224;PMS1003;56333;51.306;17.056;2023-11-21T01:22:50;3.10;1.40;
69224;PMS1003;56333;51.306;17.056;2023-11-21T01:24:20;2.50;1.40;
69224;PMS1003;56333;51.306;17.056;2023-11-21T01:25:50;1.80;1.30;
69224;PMS1003;56333;51.306;17.056;2023-11-21T01:27:18;2.20;1.40;
69224;PMS1003;56333;51.306;17.056;2023-11-21T01:28:47;2.10;1.30;
69224;PMS1003;56333;51.306;17.056;2023-11-21T01:30:16;2.60;1.40;
69224;PMS1003;56333;51.306;17.056;2023-11-21T01:31:45;4.50;2.50;
69224;PMS1003;56333;51.306;17.056;2023-11-21T01:33:13;4.10;2.30;
69224;PMS1003;56333;51.306;17.056;2023-11-21T01:34:42;3.40;2.00;
69224;PMS1003;56333;51.306;17.056;2023-11-21T01:36:12;2.10;1.50;
69224;PMS1003;56333;51.306;17.056;2023-11-21T01:37:40;2.60;1.60;
69224;PMS1003;56333;51.306;17.056;2023-11-21T01:39:09;3.00;1.90;
69224;PMS1003;56333;51.306;17.056;2023-11-21T01:40:41;3.00;1.90;
69224;PMS1003;56333;51.306;17.056;2023-11-21T01:42:09;3.00;1.40;
69224;PMS1003;56333;51.306;17.056;2023-11-21T01:43:41;2.30;1.50;
69224;PMS1003;56333;51.306;17.056;2023-11-21T01:45:11;3.20;2.20;
69224;PMS1003;56333;51.306;17.056;2023-11-21T01:46:40;2.80;1.60;
69224;PMS1003;56333;51.306;17.056;2023-11-21T01:48:08;2.60;1.60;
69224;PMS1003;56333;51.306;17.056;2023-11-21T01:49:39;2.50;1.50;
69224;PMS1003;56333;51.306;17.056;2023-11-21T01:51:08;2.80;1.70;
69224;PMS1003;56333;51.306;17.056;2023-11-21T01:52:37;3.60;1.40;
69224;PMS1003;56333;51.306;17.056;2023-11-21T01:54:07;1.90;1.50;
69224;PMS1003;56333;51.306;17.056;2023-11-21T01:55:37;3.20;1.20;
69224;PMS1003;56333;51.306;17.056;2023-11-21T01:57:06;2.60;1.40;
69224;PMS1003;56333;51.306;17.056;2023-11-21T01:58:35;2.10;1.30;
69224;PMS1003;56333;51.306;17.056;2023-11-21T02:00:05;2.10;1.50;
69224;PMS1003;56333;51.306;17.056;2023-11-21T02:01:41;2.90;1.30;
69224;PMS1003;56333;51.306;17.056;2023-11-21T02:03:09;2.30;1.20;
69224;PMS1003;56333;51.306;17.056;2023-11-21T02:04:38;1.90;1.30;
69224;PMS1003;56333;51.306;17.056;2023-11-21T02:06:07;3.60;1.30;
69224;PMS1003;56333;51.306;17.056;2023-11-21T02:07:36;2.50;1.40;
69224;PMS1003;56333;51.306;17.056;2023-11-21T02:09:05;2.10;1.40;
69224;PMS1003;56333;51.306;17.056;2023-11-21T02:10:34;2.30;1.30;
69224;PMS1003;56333;51.306;17.056;2023-11-21T02:12:03;2.70;1.20;
69224;PMS1003;56333;51.306;17.056;2023-11-21T02:13:34;2.60;1.40;
69224;PMS1003;56333;51.306;17.056;2023-11-21T02:15:04;3.00;1.30;
69224;PMS1003;56333;51.306;17.056;2023-11-21T02:16:40;1.60;1.20;
69224;PMS1003;56333;51.306;17.056;2023-11-21T02:18:14;4.90;3.30;
69224;PMS1003;56333;51.306;17.056;2023-11-21T02:19:44;11.00;6.80;
69224;PMS1003;56333;51.306;17.056;2023-11-21T02:21:13;24.20;14.50;
69224;PMS1003;56333;51.306;17.056;2023-11-21T02:22:43;21.80;11.60;
69224;PMS1003;56333;51.306;17.056;2023-11-21T02:24:19;6.10;2.90;
69224;PMS1003;56333;51.306;17.056;2023-11-21T02:25:48;29.50;11.80;
69224;PMS1003;56333;51.306;17.056;2023-11-21T02:27:16;7.70;3.10;
69224;PMS1003;56333;51.306;17.056;2023-11-21T02:28:47;8.90;4.10;
69224;PMS1003;56333;51.306;17.056;2023-11-21T02:30:19;8.20;3.50;
69224;PMS1003;56333;51.306;17.056;2023-11-21T02:31:50;15.50;6.30;
69224;PMS1003;56333;51.306;17.056;2023-11-21T02:33:20;8.50;4.00;
69224;PMS1003;56333;51.306;17.056;2023-11-21T02:34:49;10.90;4.60;
69224;PMS1003;56333;51.306;17.056;2023-11-21T02:36:17;18.00;8.10;
69224;PMS1003;56333;51.306;17.056;2023-11-21T02:37:47;21.00;9.60;
69224;PMS1003;56333;51.306;17.056;2023-11-21T02:39:15;4.70;2.50;
69224;PMS1003;56333;51.306;17.056;2023-11-21T02:40:48;3.90;2.10;
69224;PMS1003;56333;51.306;17.056;2023-11-21T02:42:16;6.40;3.20;
69224;PMS1003;56333;51.306;17.056;2023-11-21T02:43:44;4.00;2.20;
69224;PMS1003;56333;51.306;17.056;2023-11-21T02:45:15;2.90;1.30;
69224;PMS1003;56333;51.306;17.056;2023-11-21T02:46:43;2.30;1.40;
69224;PMS1003;56333;51.306;17.056;2023-11-21T02:48:13;5.10;2.90;
69224;PMS1003;56333;51.306;17.056;2023-11-21T02:49:41;3.00;1.70;
69224;PMS1003;56333;51.306;17.056;2023-11-21T02:51:09;6.00;3.30;
69224;PMS1003;56333;51.306;17.056;2023-11-21T02:52:39;7.80;4.20;
69224;PMS1003;56333;51.306;17.056;2023-11-21T02:54:08;4.70;2.60;
69224;PMS1003;56333;51.306;17.056;2023-11-21T02:55:38;1.90;1.30;
69224;PMS1003;56333;51.306;17.056;2023-11-21T02:57:07;2.70;1.60;
69224;PMS1003;56333;51.306;17.056;2023-11-21T02:58:36;5.20;2.70;
69224;PMS1003;56333;51.306;17.056;2023-11-21T03:00:07;3.20;2.10;
69224;PMS1003;56333;51.306;17.056;2023-11-21T03:01:38;4.70;2.50;
69224;PMS1003;56333;51.306;17.056;2023-11-21T03:03:07;2.30;1.50;
69224;PMS1003;56333;51.306;17.056;2023-11-21T03:04:35;3.40;1.90;
69224;PMS1003;56333;51.306;17.056;2023-11-21T03:06:04;2.60;1.40;
69224;PMS1003;56333;51.306;17.056;2023-11-21T03:07:34;3.00;2.00;
69224;PMS1003;56333;51.306;17.056;2023-11-21T03:09:03;2.70;1.30;
69224;PMS1003;56333;51.306;17.056;2023-11-21T03:10:32;3.00;1.50;
69224;PMS1003;56333;51.306;17.056;2023-11-21T03:12:00;3.30;2.00;
69224;PMS1003;56333;51.306;17.056;2023-11-21T03:13:29;4.10;2.50;
69224;PMS1003;56333;51.306;17.056;2023-11-21T03:14:57;3.10;2.10;
69224;PMS1003;56333;51.306;17.056;2023-11-21T03:16:27;2.90;1.50;
69224;PMS1003;56333;51.306;17.056;2023-11-21T03:17:57;5.60;3.00;
69224;PMS1003;56333;51.306;17.056;2023-11-21T03:19:26;4.00;2.40;
69224;PMS1003;56333;51.306;17.056;2023-11-21T03:20:56;3.20;1.70;
69224;PMS1003;56333;51.306;17.056;2023-11-21T03:22:25;3.10;1.70;
69224;PMS1003;56333;51.306;17.056;2023-11-21T03:23:54;3.80;2.00;
69224;PMS1003;56333;51.306;17.056;2023-11-21T03:25:22;5.10;3.80;
69224;PMS1003;56333;51.306;17.056;2023-11-21T03:26:51;3.00;1.80;
69224;PMS1003;56333;51.306;17.056;2023-11-21T03:28:19;1.90;1.40;
69224;PMS1003;56333;51.306;17.056;2023-11-21T03:29:49;3.40;2.70;
69224;PMS1003;56333;51.306;17.056;2023-11-21T03:31:18;2.70;1.80;
69224;PMS1003;56333;51.306;17.056;2023-11-21T03:32:46;3.10;2.10;
69224;PMS1003;56333;51.306;17.056;2023-11-21T03:34:22;4.40;2.20;
69224;PMS1003;56333;51.306;17.056;2023-11-21T03:35:52;1.30;1.10;
69224;PMS1003;56333;51.306;17.056;2023-11-21T03:37:20;6.20;3.30;
69224;PMS1003;56333;51.306;17.056;2023-11-21T03:38:49;8.90;4.60;
69224;PMS1003;56333;51.306;17.056;2023-11-21T03:40:18;3.30;2.00;
69224;PMS1003;56333;51.306;17.056;2023-11-21T03:41:46;2.30;1.50;
69224;PMS1003;56333;51.306;17.056;2023-11-21T03:43:15;2.80;1.70;
69224;PMS1003;56333;51.306;17.056;2023-11-21T03:44:44;1.80;1.20;
69224;PMS1003;56333;51.306;17.056;2023-11-21T03:46:13;2.30;1.30;
69224;PMS1003;56333;51.306;17.056;2023-11-21T03:47:42;2.50;1.60;
69224;PMS1003;56333;51.306;17.056;2023-11-21T03:49:11;3.00;1.50;
69224;PMS1003;56333;51.306;17.056;2023-11-21T03:50:41;1.90;1.10;
69224;PMS1003;56333;51.306;17.056;2023-11-21T03:52:09;2.30;1.40;
69224;PMS1003;56333;51.306;17.056;2023-11-21T03:53:38;1.40;1.10;
69224;PMS1003;56333;51.306;17.056;2023-11-21T03:55:09;2.60;1.40;
69224;PMS1003;56333;51.306;17.056;2023-11-21T03:56:40;1.70;1.20;
69224;PMS1003;56333;51.306;17.056;2023-11-21T03:58:08;1.30;1.10;
69224;PMS1003;56333;51.306;17.056;2023-11-21T03:59:39;1.50;0.90;
69224;PMS1003;56333;51.306;17.056;2023-11-21T04:01:08;2.50;1.70;
69224;PMS1003;56333;51.306;17.056;2023-11-21T04:02:36;3.90;2.50;
69224;PMS1003;56333;51.306;17.056;2023-11-21T04:04:06;2.60;1.40;
69224;PMS1003;56333;51.306;17.056;2023-11-21T04:05:35;2.50;1.40;
69224;PMS1003;56333;51.306;17.056;2023-11-21T04:07:03;1.90;1.30;
69224;PMS1003;56333;51.306;17.056;2023-11-21T04:08:32;2.20;1.30;
69224;PMS1003;56333;51.306;17.056;2023-11-21T04:10:01;2.70;1.40;
69224;PMS1003;56333;51.306;17.056;2023-11-21T04:11:29;2.10;1.40;
69224;PMS1003;56333;51.306;17.056;2023-11-21T04:12:58;2.10;1.60;
69224;PMS1003;56333;51.306;17.056;2023-11-21T04:14:28;2.20;1.40;
69224;PMS1003;56333;51.306;17.056;2023-11-21T04:15:57;3.10;1.90;
69224;PMS1003;56333;51.306;17.056;2023-11-21T04:17:29;2.60;1.80;
69224;PMS1003;56333;51.306;17.056;2023-11-21T04:18:57;1.70;1.30;
69224;PMS1003;56333;51.306;17.056;2023-11-21T04:20:26;3.20;2.10;
69224;PMS1003;56333;51.306;17.056;2023-11-21T04:21:54;2.80;1.40;
69224;PMS1003;56333;51.306;17.056;2023-11-21T04:23:23;2.40;1.70;
69224;PMS1003;56333;51.306;17.056;2023-11-21T04:24:51;2.70;1.30;
69224;PMS1003;56333;51.306;17.056;2023-11-21T04:27:50;2.20;1.50;
69224;PMS1003;56333;51.306;17.056;2023-11-21T04:29:18;2.80;1.60;
69224;PMS1003;56333;51.306;17.056;2023-11-21T04:30:47;1.60;1.20;
69224;PMS1003;56333;51.306;17.056;2023-11-21T04:32:15;2.50;1.20;
69224;PMS1003;56333;51.306;17.056;2023-11-21T04:33:44;2.40;1.10;
69224;PMS1003;56333;51.306;17.056;2023-11-21T04:35:12;1.40;1.00;
69224;PMS1003;56333;51.306;17.056;2023-11-21T04:36:42;2.00;1.00;
69224;PMS1003;56333;51.306;17.056;2023-11-21T04:38:10;1.90;1.20;
69224;PMS1003;56333;51.306;17.056;2023-11-21T04:39:39;1.50;1.00;
69224;PMS1003;56333;51.306;17.056;2023-11-21T04:41:08;1.90;1.30;
69224;PMS1003;56333;51.306;17.056;2023-11-21T04:42:38;2.00;1.70;
69224;PMS1003;56333;51.306;17.056;2023-11-21T04:44:07;1.90;1.40;
69224;PMS1003;56333;51.306;17.056;2023-11-21T04:45:35;2.60;1.70;
69224;PMS1003;56333;51.306;17.056;2023-11-21T04:47:04;8.10;5.70;
69224;PMS1003;56333;51.306;17.056;2023-11-21T04:48:33;3.70;2.40;
69224;PMS1003;56333;51.306;17.056;2023-11-21T04:50:01;4.10;1.80;
69224;PMS1003;56333;51.306;17.056;2023-11-21T04:51:31;3.30;1.70;
69224;PMS1003;56333;51.306;17.056;2023-11-21T04:52:59;3.30;1.40;
69224;PMS1003;56333;51.306;17.056;2023-11-21T04:54:28;4.50;2.30;
69224;PMS1003;56333;51.306;17.056;2023-11-21T04:55:57;7.40;2.90;
69224;PMS1003;56333;51.306;17.056;2023-11-21T04:57:25;2.60;1.40;
69224;PMS1003;56333;51.306;17.056;2023-11-21T04:58:56;4.30;2.10;
69224;PMS1003;56333;51.306;17.056;2023-11-21T05:00:24;3.30;1.90;
69224;PMS1003;56333;51.306;17.056;2023-11-21T05:01:53;4.20;2.40;
69224;PMS1003;56333;51.306;17.056;2023-11-21T05:03:22;8.00;4.00;
69224;PMS1003;56333;51.306;17.056;2023-11-21T05:04:50;4.20;2.40;
69224;PMS1003;56333;51.306;17.056;2023-11-21T05:06:19;6.10;3.30;
69224;PMS1003;56333;51.306;17.056;2023-11-21T05:07:49;8.00;3.50;
69224;PMS1003;56333;51.306;17.056;2023-11-21T05:09:19;27.40;12.00;
69224;PMS1003;56333;51.306;17.056;2023-11-21T05:10:48;18.70;8.50;
69224;PMS1003;56333;51.306;17.056;2023-11-21T05:12:17;8.90;4.40;
69224;PMS1003;56333;51.306;17.056;2023-11-21T05:13:46;15.90;8.00;
69224;PMS1003;56333;51.306;17.056;2023-11-21T05:15:16;9.70;4.90;
69224;PMS1003;56333;51.306;17.056;2023-11-21T05:16:45;13.70;6.50;
69224;PMS1003;56333;51.306;17.056;2023-11-21T05:18:13;15.30;7.10;
69224;PMS1003;56333;51.306;17.056;2023-11-21T05:19:41;7.40;3.70;
69224;PMS1003;56333;51.306;17.056;2023-11-21T05:21:11;10.00;4.40;
69224;PMS1003;56333;51.306;17.056;2023-11-21T05:22:40;10.10;4.60;
69224;PMS1003;56333;51.306;17.056;2023-11-21T05:24:10;15.80;6.80;
69224;PMS1003;56333;51.306;17.056;2023-11-21T05:25:38;16.30;7.70;
69224;PMS1003;56333;51.306;17.056;2023-11-21T05:27:07;10.90;5.40;
69224;PMS1003;56333;51.306;17.056;2023-11-21T05:28:37;7.70;4.30;
69224;PMS1003;56333;51.306;17.056;2023-11-21T05:30:08;14.20;6.80;
69224;PMS1003;56333;51.306;17.056;2023-11-21T05:31:39;15.00;6.60;
69224;PMS1003;56333;51.306;17.056;2023-11-21T05:33:08;14.70;6.70;
69224;PMS1003;56333;51.306;17.056;2023-11-21T05:34:36;7.30;3.70;
69224;PMS1003;56333;51.306;17.056;2023-11-21T05:36:06;7.30;3.60;
69224;PMS1003;56333;51.306;17.056;2023-11-21T05:37:36;29.70;12.10;
69224;PMS1003;56333;51.306;17.056;2023-11-21T05:39:05;11.00;5.10;
69224;PMS1003;56333;51.306;17.056;2023-11-21T05:40:34;9.10;3.60;
69224;PMS1003;56333;51.306;17.056;2023-11-21T05:42:03;5.70;2.80;
69224;PMS1003;56333;51.306;17.056;2023-11-21T05:43:32;4.10;2.40;
69224;PMS1003;56333;51.306;17.056;2023-11-21T05:45:01;10.20;4.90;
69224;PMS1003;56333;51.306;17.056;2023-11-21T05:46:34;4.70;2.40;
69224;PMS1003;56333;51.306;17.056;2023-11-21T05:48:03;3.70;2.50;
69224;PMS1003;56333;51.306;17.056;2023-11-21T05:49:32;4.50;2.30;
69224;PMS1003;56333;51.306;17.056;2023-11-21T05:51:00;6.30;3.10;
69224;PMS1003;56333;51.306;17.056;2023-11-21T05:52:30;11.60;5.10;
69224;PMS1003;56333;51.306;17.056;2023-11-21T05:53:59;6.00;3.20;
69224;PMS1003;56333;51.306;17.056;2023-11-21T05:55:28;10.80;4.80;
69224;PMS1003;56333;51.306;17.056;2023-11-21T05:56:56;5.90;3.20;
69224;PMS1003;56333;51.306;17.056;2023-11-21T05:58:25;4.00;2.60;
69224;PMS1003;56333;51.306;17.056;2023-11-21T05:59:54;3.30;2.20;
69224;PMS1003;56333;51.306;17.056;2023-11-21T06:01:22;5.50;3.40;
69224;PMS1003;56333;51.306;17.056;2023-11-21T06:02:54;5.10;2.90;
69224;PMS1003;56333;51.306;17.056;2023-11-21T06:04:23;3.20;2.10;
69224;PMS1003;56333;51.306;17.056;2023-11-21T06:05:52;5.30;3.20;
69224;PMS1003;56333;51.306;17.056;2023-11-21T06:07:21;3.90;2.50;
69224;PMS1003;56333;51.306;17.056;2023-11-21T06:08:49;4.10;2.10;
69224;PMS1003;56333;51.306;17.056;2023-11-21T06:10:19;2.90;2.20;
69224;PMS1003;56333;51.306;17.056;2023-11-21T06:11:49;4.40;2.40;
69224;PMS1003;56333;51.306;17.056;2023-11-21T06:13:17;3.10;2.30;
69224;PMS1003;56333;51.306;17.056;2023-11-21T06:14:50;10.90;5.50;
69224;PMS1003;56333;51.306;17.056;2023-11-21T06:16:18;4.90;2.70;
69224;PMS1003;56333;51.306;17.056;2023-11-21T06:17:47;4.60;2.80;
69224;PMS1003;56333;51.306;17.056;2023-11-21T06:19:18;3.20;2.40;
69224;PMS1003;56333;51.306;17.056;2023-11-21T06:20:46;3.80;2.50;
69224;PMS1003;56333;51.306;17.056;2023-11-21T06:22:15;3.80;2.30;
69224;PMS1003;56333;51.306;17.056;2023-11-21T06:23:45;3.30;2.20;
69224;PMS1003;56333;51.306;17.056;2023-11-21T06:25:15;3.80;2.80;
69224;PMS1003;56333;51.306;17.056;2023-11-21T06:26:43;4.50;2.20;
69224;PMS1003;56333;51.306;17.056;2023-11-21T06:28:14;2.40;2.00;
69224;PMS1003;56333;51.306;17.056;2023-11-21T06:29:43;5.50;4.80;
69224;PMS1003;56333;51.306;17.056;2023-11-21T06:31:16;4.20;3.20;
69224;PMS1003;56333;51.306;17.056;2023-11-21T06:32:44;2.90;2.20;
69224;PMS1003;56333;51.306;17.056;2023-11-21T06:34:13;2.80;1.90;
69224;PMS1003;56333;51.306;17.056;2023-11-21T06:35:41;2.80;2.10;
69224;PMS1003;56333;51.306;17.056;2023-11-21T06:37:10;2.60;2.00;
69224;PMS1003;56333;51.306;17.056;2023-11-21T06:38:38;2.90;2.10;
69224;PMS1003;56333;51.306;17.056;2023-11-21T06:40:09;4.20;3.10;
69224;PMS1003;56333;51.306;17.056;2023-11-21T06:41:39;3.40;2.20;
69224;PMS1003;56333;51.306;17.056;2023-11-21T06:43:08;3.50;2.10;
69224;PMS1003;56333;51.306;17.056;2023-11-21T06:44:37;3.10;2.20;
69224;PMS1003;56333;51.306;17.056;2023-11-21T06:46:08;2.50;2.00;
69224;PMS1003;56333;51.306;17.056;2023-11-21T06:47:37;3.10;1.90;
69224;PMS1003;56333;51.306;17.056;2023-11-21T06:49:05;3.40;2.00;
69224;PMS1003;56333;51.306;17.056;2023-11-21T06:50:33;2.80;2.10;
69224;PMS1003;56333;51.306;17.056;2023-11-21T06:52:02;4.70;3.10;
69224;PMS1003;56333;51.306;17.056;2023-11-21T06:53:31;5.30;4.70;
69224;PMS1003;56333;51.306;17.056;2023-11-21T06:55:00;3.80;3.20;
69224;PMS1003;56333;51.306;17.056;2023-11-21T06:56:30;3.10;2.50;
69224;PMS1003;56333;51.306;17.056;2023-11-21T06:57:59;3.40;2.60;
69224;PMS1003;56333;51.306;17.056;2023-11-21T06:59:29;4.70;3.60;
69224;PMS1003;56333;51.306;17.056;2023-11-21T07:00:58;14.60;9.80;
69224;PMS1003;56333;51.306;17.056;2023-11-21T07:02:26;16.00;11.50;
69224;PMS1003;56333;51.306;17.056;2023-11-21T07:03:55;15.50;13.90;
69224;PMS1003;56333;51.306;17.056;2023-11-21T07:05:23;7.10;6.30;
69224;PMS1003;56333;51.306;17.056;2023-11-21T07:06:52;5.40;4.50;
69224;PMS1003;56333;51.306;17.056;2023-11-21T07:08:21;4.50;3.10;
69224;PMS1003;56333;51.306;17.056;2023-11-21T07:09:49;5.60;5.10;
69224;PMS1003;56333;51.306;17.056;2023-11-21T07:11:18;7.50;6.50;
69224;PMS1003;56333;51.306;17.056;2023-11-21T07:12:46;6.30;5.60;
69224;PMS1003;56333;51.306;17.056;2023-11-21T07:14:16;6.80;6.10;
69224;PMS1003;56333;51.306;17.056;2023-11-21T07:15:45;8.40;7.60;
69224;PMS1003;56333;51.306;17.056;2023-11-21T07:17:14;5.60;5.10;
69224;PMS1003;56333;51.306;17.056;2023-11-21T07:18:43;4.10;3.60;
69224;PMS1003;56333;51.306;17.056;2023-11-21T07:20:13;5.20;3.80;
69224;PMS1003;56333;51.306;17.056;2023-11-21T07:21:43;3.40;3.00;
69224;PMS1003;56333;51.306;17.056;2023-11-21T07:23:11;3.20;2.80;
69224;PMS1003;56333;51.306;17.056;2023-11-21T07:24:43;4.70;3.30;
69224;PMS1003;56333;51.306;17.056;2023-11-21T07:26:11;3.30;2.50;
69224;PMS1003;56333;51.306;17.056;2023-11-21T07:27:39;4.00;2.80;
69224;PMS1003;56333;51.306;17.056;2023-11-21T07:29:08;3.60;2.80;
69224;PMS1003;56333;51.306;17.056;2023-11-21T07:30:37;5.50;2.70;
69224;PMS1003;56333;51.306;17.056;2023-11-21T07:32:06;3.20;2.40;
69224;PMS1003;56333;51.306;17.056;2023-11-21T07:33:35;3.40;2.80;
69224;PMS1003;56333;51.306;17.056;2023-11-21T07:35:06;3.50;2.90;
69224;PMS1003;56333;51.306;17.056;2023-11-21T07:36:35;3.60;2.90;
69224;PMS1003;56333;51.306;17.056;2023-11-21T07:38:04;3.60;3.20;
69224;PMS1003;56333;51.306;17.056;2023-11-21T07:39:32;3.50;2.90;
69224;PMS1003;56333;51.306;17.056;2023-11-21T07:41:01;4.10;3.10;
69224;PMS1003;56333;51.306;17.056;2023-11-21T07:42:29;3.90;3.50;
69224;PMS1003;56333;51.306;17.056;2023-11-21T07:43:59;12.20;7.60;
69224;PMS1003;56333;51.306;17.056;2023-11-21T07:45:28;11.70;7.10;
69224;PMS1003;56333;51.306;17.056;2023-11-21T07:46:56;16.10;8.60;
69224;PMS1003;56333;51.306;17.056;2023-11-21T07:48:26;15.00;8.20;
69224;PMS1003;56333;51.306;17.056;2023-11-21T07:49:54;10.80;5.90;
69224;PMS1003;56333;51.306;17.056;2023-11-21T07:51:23;16.40;8.50;
69224;PMS1003;56333;51.306;17.056;2023-11-21T07:52:51;16.70;8.20;
69224;PMS1003;56333;51.306;17.056;2023-11-21T07:54:21;8.10;4.80;
69224;PMS1003;56333;51.306;17.056;2023-11-21T07:55:50;10.70;6.30;
69224;PMS1003;56333;51.306;17.056;2023-11-21T07:57:18;8.20;4.80;
69224;PMS1003;56333;51.306;17.056;2023-11-21T07:59:08;11.40;7.10;
69224;PMS1003;56333;51.306;17.056;2023-11-21T08:01:01;8.40;4.90;
69224;PMS1003;56333;51.306;17.056;2023-11-21T08:02:30;9.20;5.30;
69224;PMS1003;56333;51.306;17.056;2023-11-21T08:03:58;12.00;7.00;
69224;PMS1003;56333;51.306;17.056;2023-11-21T08:05:29;7.80;4.20;
69224;PMS1003;56333;51.306;17.056;2023-11-21T08:06:59;6.50;4.20;
69224;PMS1003;56333;51.306;17.056;2023-11-21T08:08:30;5.40;3.80;
69224;PMS1003;56333;51.306;17.056;2023-11-21T08:09:58;7.00;4.80;
69224;PMS1003;56333;51.306;17.056;2023-11-21T08:11:27;7.00;4.10;
69224;PMS1003;56333;51.306;17.056;2023-11-21T08:12:57;11.80;6.60;
69224;PMS1003;56333;51.306;17.056;2023-11-21T08:14:26;8.00;4.80;
69224;PMS1003;56333;51.306;17.056;2023-11-21T08:15:57;6.40;4.20;
69224;PMS1003;56333;51.306;17.056;2023-11-21T08:17:28;5.70;3.80;
69224;PMS1003;56333;51.306;17.056;2023-11-21T08:18:58;5.70;3.30;
69224;PMS1003;56333;51.306;17.056;2023-11-21T08:20:26;8.10;4.90;
69224;PMS1003;56333;51.306;17.056;2023-11-21T08:21:55;5.10;3.20;
69224;PMS1003;56333;51.306;17.056;2023-11-21T08:23:24;4.70;3.50;
69224;PMS1003;56333;51.306;17.056;2023-11-21T08:24:55;5.30;3.50;
69224;PMS1003;56333;51.306;17.056;2023-11-21T08:26:24;4.40;3.10;
69224;PMS1003;56333;51.306;17.056;2023-11-21T08:27:53;6.90;5.00;
69224;PMS1003;56333;51.306;17.056;2023-11-21T08:29:22;5.90;3.80;
69224;PMS1003;56333;51.306;17.056;2023-11-21T08:30:50;8.80;5.40;
69224;PMS1003;56333;51.306;17.056;2023-11-21T08:32:18;4.40;3.50;
69224;PMS1003;56333;51.306;17.056;2023-11-21T08:33:47;6.10;5.50;
69224;PMS1003;56333;51.306;17.056;2023-11-21T08:35:16;11.60;9.50;
69224;PMS1003;56333;51.306;17.056;2023-11-21T08:36:45;16.10;11.20;
69224;PMS1003;56333;51.306;17.056;2023-11-21T08:38:14;21.00;12.90;
69224;PMS1003;56333;51.306;17.056;2023-11-21T08:39:43;20.40;13.10;
69224;PMS1003;56333;51.306;17.056;2023-11-21T08:41:11;19.10;14.10;
69224;PMS1003;56333;51.306;17.056;2023-11-21T08:42:40;17.50;13.10;
69224;PMS1003;56333;51.306;17.056;2023-11-21T08:44:09;22.30;15.10;
69224;PMS1003;56333;51.306;17.056;2023-11-21T08:45:37;23.60;16.50;
69224;PMS1003;56333;51.306;17.056;2023-11-21T08:47:07;21.00;15.80;
69224;PMS1003;56333;51.306;17.056;2023-11-21T08:48:36;23.70;16.70;
69224;PMS1003;56333;51.306;17.056;2023-11-21T08:50:07;23.70;16.90;
69224;PMS1003;56333;51.306;17.056;2023-11-21T08:51:37;24.90;17.30;
69224;PMS1003;56333;51.306;17.056;2023-11-21T08:53:06;32.50;16.20;
69224;PMS1003;56333;51.306;17.056;2023-11-21T08:54:36;38.40;17.10;
69224;PMS1003;56333;51.306;17.056;2023-11-21T08:56:07;27.40;16.10;
69224;PMS1003;56333;51.306;17.056;2023-11-21T08:57:36;29.50;15.80;
69224;PMS1003;56333;51.306;17.056;2023-11-21T08:59:06;37.90;19.70;
69224;PMS1003;56333;51.306;17.056;2023-11-21T09:00:34;38.00;20.50;
69224;PMS1003;56333;51.306;17.056;2023-11-21T09:02:04;40.80;19.10;
69224;PMS1003;56333;51.306;17.056;2023-11-21T09:03:33;26.50;16.90;
69224;PMS1003;56333;51.306;17.056;2023-11-21T09:05:02;37.60;16.80;
69224;PMS1003;56333;51.306;17.056;2023-11-21T09:06:32;35.40;17.00;